sensor_id;sensor_type;location;lat;lon;timestamp;pressure;altitude;pressure_sealevel;temperature;humidity
46778;BME280;32536;47.128;8.746;2023-08-01T00:00:10;91108.00;;;23.94;40.24
46778;BME280;32536;47.128;8.746;2023-08-01T00:02:38;91100.31;;;23.93;40.42
46778;BME280;32536;47.128;8.746;2023-08-01T00:05:05;91096.56;;;23.90;40.28
46778;BME280;32536;47.128;8.746;2023-08-01T00:07:32;91095.78;;;23.90;40.15
46778;BME280;32536;47.128;8.746;2023-08-01T00:09:59;91086.84;;;23.89;40.16
46778;BME280;32536;47.128;8.746;2023-08-01T00:12:25;91090.59;;;23.86;40.25
46778;BME280;32536;47.128;8.746;2023-08-01T00:18:22;91081.91;;;23.82;40.27
46778;BME280;32536;47.128;8.746;2023-08-01T00:20:52;91075.72;;;23.76;40.40
46778;BME280;32536;47.128;8.746;2023-08-01T00:23:19;91070.00;;;23.74;40.52
46778;BME280;32536;47.128;8.746;2023-08-01T00:25:46;91067.53;;;23.70;40.68
46778;BME280;32536;47.128;8.746;2023-08-01T00:28:17;91056.84;;;23.66;40.58
46778;BME280;32536;47.128;8.746;2023-08-01T00:30:44;91044.66;;;23.62;40.51
46778;BME280;32536;47.128;8.746;2023-08-01T00:33:11;91042.69;;;23.62;40.14
46778;BME280;32536;47.128;8.746;2023-08-01T00:35:38;91045.69;;;23.59;40.38
46778;BME280;32536;47.128;8.746;2023-08-01T00:38:05;91043.72;;;23.54;40.42
46778;BME280;32536;47.128;8.746;2023-08-01T00:40:33;91032.28;;;23.49;40.44
46778;BME280;32536;47.128;8.746;2023-08-01T00:43:00;91023.09;;;23.47;40.43
46778;BME280;32536;47.128;8.746;2023-08-01T00:45:27;91017.91;;;23.43;40.52
46778;BME280;32536;47.128;8.746;2023-08-01T00:47:55;91012.47;;;23.32;40.67
46778;BME280;32536;47.128;8.746;2023-08-01T00:50:22;91009.75;;;23.26;40.67
46778;BME280;32536;47.128;8.746;2023-08-01T00:52:51;91003.03;;;23.22;40.64
46778;BME280;32536;47.128;8.746;2023-08-01T00:55:19;90996.38;;;23.17;40.77
46778;BME280;32536;47.128;8.746;2023-08-01T00:57:47;91003.03;;;23.16;40.63
46778;BME280;32536;47.128;8.746;2023-08-01T01:00:14;91000.06;;;23.14;40.65
46778;BME280;32536;47.128;8.746;2023-08-01T01:02:40;90998.34;;;23.11;40.59
46778;BME280;32536;47.128;8.746;2023-08-01T01:05:07;90984.19;;;23.07;40.67
46778;BME280;32536;47.128;8.746;2023-08-01T01:07:34;90982.94;;;23.08;40.95
46778;BME280;32536;47.128;8.746;2023-08-01T01:10:01;90986.41;;;23.08;40.94
46778;BME280;32536;47.128;8.746;2023-08-01T01:12:28;90978.72;;;23.07;41.11
46778;BME280;32536;47.128;8.746;2023-08-01T01:14:54;90972.50;;;23.06;41.18
46778;BME280;32536;47.128;8.746;2023-08-01T01:17:21;90977.97;;;23.06;41.15
46778;BME280;32536;47.128;8.746;2023-08-01T01:19:48;90973.75;;;23.05;41.16
46778;BME280;32536;47.128;8.746;2023-08-01T01:22:19;90962.84;;;22.99;41.26
46778;BME280;32536;47.128;8.746;2023-08-01T01:24:46;90967.56;;;22.93;41.37
46778;BME280;32536;47.128;8.746;2023-08-01T01:27:16;90960.13;;;22.94;41.44
46778;BME280;32536;47.128;8.746;2023-08-01T01:29:44;90959.38;;;22.99;41.32
46778;BME280;32536;47.128;8.746;2023-08-01T01:32:12;90962.56;;;23.03;41.28
46778;BME280;32536;47.128;8.746;2023-08-01T01:34:39;90968.03;;;23.09;41.30
46778;BME280;32536;47.128;8.746;2023-08-01T01:37:06;90966.81;;;23.10;41.20
46778;BME280;32536;47.128;8.746;2023-08-01T01:39:33;90962.56;;;23.09;41.24
46778;BME280;32536;47.128;8.746;2023-08-01T01:42:00;90971.50;;;23.09;41.21
46778;BME280;32536;47.128;8.746;2023-08-01T01:44:27;90962.31;;;23.07;41.47
46778;BME280;32536;47.128;8.746;2023-08-01T01:46:53;90958.09;;;23.06;41.37
46778;BME280;32536;47.128;8.746;2023-08-01T01:49:20;90959.84;;;23.03;41.40
46778;BME280;32536;47.128;8.746;2023-08-01T01:51:47;90952.16;;;23.01;41.32
46778;BME280;32536;47.128;8.746;2023-08-01T01:54:13;90961.59;;;23.00;41.46
46778;BME280;32536;47.128;8.746;2023-08-01T01:57:05;90957.38;;;22.99;41.46
46778;BME280;32536;47.128;8.746;2023-08-01T01:59:32;90957.16;;;22.97;41.57
46778;BME280;32536;47.128;8.746;2023-08-01T02:01:59;90948.69;;;22.95;41.42
46778;BME280;32536;47.128;8.746;2023-08-01T02:04:25;90956.41;;;22.91;41.40
46778;BME280;32536;47.128;8.746;2023-08-01T02:06:52;90953.69;;;22.91;41.39
46778;BME280;32536;47.128;8.746;2023-08-01T02:09:20;90955.66;;;22.91;41.42
46778;BME280;32536;47.128;8.746;2023-08-01T02:11:47;90959.16;;;22.91;41.47
46778;BME280;32536;47.128;8.746;2023-08-01T02:14:14;90955.66;;;22.91;41.44
46778;BME280;32536;47.128;8.746;2023-08-01T02:16:41;90958.38;;;22.91;41.35
46778;BME280;32536;47.128;8.746;2023-08-01T02:19:08;90956.16;;;22.89;41.47
46778;BME280;32536;47.128;8.746;2023-08-01T02:21:35;90959.41;;;22.88;41.64
46778;BME280;32536;47.128;8.746;2023-08-01T02:24:01;90966.84;;;22.81;41.75
46778;BME280;32536;47.128;8.746;2023-08-01T02:26:29;90940.28;;;22.76;41.71
46778;BME280;32536;47.128;8.746;2023-08-01T02:28:56;90944.03;;;22.73;41.65
46778;BME280;32536;47.128;8.746;2023-08-01T02:31:23;90957.19;;;22.63;42.05
46778;BME280;32536;47.128;8.746;2023-08-01T02:33:49;90951.22;;;22.59;41.91
46778;BME280;32536;47.128;8.746;2023-08-01T02:36:16;90950.25;;;22.51;41.89
46778;BME280;32536;47.128;8.746;2023-08-01T02:38:43;90946.03;;;22.50;41.79
46778;BME280;32536;47.128;8.746;2023-08-01T02:41:09;90936.88;;;22.47;41.85
46778;BME280;32536;47.128;8.746;2023-08-01T02:43:36;90936.09;;;22.47;41.96
46778;BME280;32536;47.128;8.746;2023-08-01T02:46:03;90938.09;;;22.46;42.02
46778;BME280;32536;47.128;8.746;2023-08-01T02:48:32;90930.91;;;22.49;41.87
46778;BME280;32536;47.128;8.746;2023-08-01T02:51:10;90928.16;;;22.43;42.88
46778;BME280;32536;47.128;8.746;2023-08-01T02:53:37;90930.66;;;22.41;41.99
46778;BME280;32536;47.128;8.746;2023-08-01T02:56:06;90940.78;;;22.35;42.09
46778;BME280;32536;47.128;8.746;2023-08-01T02:58:36;90932.38;;;22.33;41.92
46778;BME280;32536;47.128;8.746;2023-08-01T03:01:06;90939.78;;;22.32;42.47
46778;BME280;32536;47.128;8.746;2023-08-01T03:03:35;90932.13;;;22.36;41.96
46778;BME280;32536;47.128;8.746;2023-08-01T03:06:02;90937.09;;;22.38;41.94
46778;BME280;32536;47.128;8.746;2023-08-01T03:08:29;90929.91;;;22.41;41.99
46778;BME280;32536;47.128;8.746;2023-08-01T03:10:56;90939.34;;;22.39;42.12
46778;BME280;32536;47.128;8.746;2023-08-01T03:13:23;90926.94;;;22.38;42.15
46778;BME280;32536;47.128;8.746;2023-08-01T03:15:50;90930.66;;;22.41;42.12
46778;BME280;32536;47.128;8.746;2023-08-01T03:18:17;90929.91;;;22.46;42.23
46778;BME280;32536;47.128;8.746;2023-08-01T03:20:44;90938.59;;;22.50;42.05
46778;BME280;32536;47.128;8.746;2023-08-01T03:23:10;90946.53;;;22.54;42.28
46778;BME280;32536;47.128;8.746;2023-08-01T03:25:37;90953.00;;;22.51;41.90
46778;BME280;32536;47.128;8.746;2023-08-01T03:28:04;90961.44;;;22.47;41.91
46778;BME280;32536;47.128;8.746;2023-08-01T03:30:32;90957.44;;;22.48;42.08
46778;BME280;32536;47.128;8.746;2023-08-01T03:33:00;90965.63;;;22.54;41.83
46778;BME280;32536;47.128;8.746;2023-08-01T03:35:28;90979.75;;;22.58;42.09
46778;BME280;32536;47.128;8.746;2023-08-01T03:37:55;90979.78;;;22.52;42.26
46778;BME280;32536;47.128;8.746;2023-08-01T03:40:21;90978.78;;;22.44;42.33
46778;BME280;32536;47.128;8.746;2023-08-01T03:42:49;90966.38;;;22.37;42.22
46778;BME280;32536;47.128;8.746;2023-08-01T03:45:15;90996.84;;;22.25;42.50
46778;BME280;32536;47.128;8.746;2023-08-01T03:47:42;90973.50;;;21.95;43.61
46778;BME280;32536;47.128;8.746;2023-08-01T03:50:09;90966.72;;;21.68;43.89
46778;BME280;32536;47.128;8.746;2023-08-01T03:52:36;90960.22;;;21.54;44.03
46778;BME280;32536;47.128;8.746;2023-08-01T03:55:03;90971.81;;;21.43;44.20
46778;BME280;32536;47.128;8.746;2023-08-01T03:57:30;90968.31;;;21.31;44.60
46778;BME280;32536;47.128;8.746;2023-08-01T04:00:00;90972.22;;;21.19;44.94
46778;BME280;32536;47.128;8.746;2023-08-01T04:02:26;90975.44;;;21.17;44.54
46778;BME280;32536;47.128;8.746;2023-08-01T04:04:53;90964.81;;;21.19;44.79
46778;BME280;32536;47.128;8.746;2023-08-01T04:07:20;90953.41;;;21.21;44.59
46778;BME280;32536;47.128;8.746;2023-08-01T04:09:46;90958.13;;;21.26;44.62
46778;BME280;32536;47.128;8.746;2023-08-01T04:12:13;90962.09;;;21.25;44.87
46778;BME280;32536;47.128;8.746;2023-08-01T04:14:40;90964.56;;;21.23;44.91
46778;BME280;32536;47.128;8.746;2023-08-01T04:17:06;90961.34;;;21.24;44.70
46778;BME280;32536;47.128;8.746;2023-08-01T04:19:33;90969.78;;;21.26;44.93
46778;BME280;32536;47.128;8.746;2023-08-01T04:22:00;90965.09;;;21.27;44.53
46778;BME280;32536;47.128;8.746;2023-08-01T04:24:26;90966.34;;;21.32;44.72
46778;BME280;32536;47.128;8.746;2023-08-01T04:26:53;90952.75;;;21.37;44.33
46778;BME280;32536;47.128;8.746;2023-08-01T04:29:20;90934.91;;;21.42;44.49
46778;BME280;32536;47.128;8.746;2023-08-01T04:31:47;90961.94;;;21.46;45.07
46778;BME280;32536;47.128;8.746;2023-08-01T04:34:13;90968.13;;;21.46;45.05
46778;BME280;32536;47.128;8.746;2023-08-01T04:36:40;90954.03;;;21.48;44.77
46778;BME280;32536;47.128;8.746;2023-08-01T04:39:07;90944.88;;;21.51;44.55
46778;BME280;32536;47.128;8.746;2023-08-01T04:41:33;90943.38;;;21.55;44.67
46778;BME280;32536;47.128;8.746;2023-08-01T04:44:00;90935.00;;;21.59;44.49
46778;BME280;32536;47.128;8.746;2023-08-01T04:46:27;90951.34;;;21.59;44.86
46778;BME280;32536;47.128;8.746;2023-08-01T04:48:53;90955.56;;;21.60;44.99
46778;BME280;32536;47.128;8.746;2023-08-01T04:51:20;90959.28;;;21.63;44.91
46778;BME280;32536;47.128;8.746;2023-08-01T04:53:47;90960.03;;;21.63;45.39
46778;BME280;32536;47.128;8.746;2023-08-01T04:56:14;90950.38;;;21.68;45.00
46778;BME280;32536;47.128;8.746;2023-08-01T04:58:40;90953.13;;;21.73;44.84
46778;BME280;32536;47.128;8.746;2023-08-01T05:01:07;90941.97;;;21.77;45.01
46778;BME280;32536;47.128;8.746;2023-08-01T05:03:34;90942.25;;;21.79;45.16
46778;BME280;32536;47.128;8.746;2023-08-01T05:06:01;90930.56;;;21.79;45.11
46778;BME280;32536;47.128;8.746;2023-08-01T05:08:27;90929.34;;;21.80;45.09
46778;BME280;32536;47.128;8.746;2023-08-01T05:10:54;90941.47;;;21.79;44.97
46778;BME280;32536;47.128;8.746;2023-08-01T05:13:21;90942.75;;;21.78;45.27
46778;BME280;32536;47.128;8.746;2023-08-01T05:15:47;90937.53;;;21.74;44.78
46778;BME280;32536;47.128;8.746;2023-08-01T05:18:16;90920.91;;;21.72;45.20
46778;BME280;32536;47.128;8.746;2023-08-01T05:20:43;90915.47;;;21.72;44.77
46778;BME280;32536;47.128;8.746;2023-08-01T05:23:10;90922.16;;;21.71;45.34
46778;BME280;32536;47.128;8.746;2023-08-01T05:25:37;90923.38;;;21.70;45.06
46778;BME280;32536;47.128;8.746;2023-08-01T05:28:03;90926.09;;;21.64;45.68
46778;BME280;32536;47.128;8.746;2023-08-01T05:30:30;90921.81;;;21.52;45.77
46778;BME280;32536;47.128;8.746;2023-08-01T05:32:57;90916.09;;;21.44;45.94
46778;BME280;32536;47.128;8.746;2023-08-01T05:35:23;90912.13;;;21.39;46.06
46778;BME280;32536;47.128;8.746;2023-08-01T05:37:50;90913.34;;;21.38;45.85
46778;BME280;32536;47.128;8.746;2023-08-01T05:40:17;90921.75;;;21.35;46.40
46778;BME280;32536;47.128;8.746;2023-08-01T05:42:44;90922.72;;;21.26;46.82
46778;BME280;32536;47.128;8.746;2023-08-01T05:45:10;90925.19;;;21.18;46.89
46778;BME280;32536;47.128;8.746;2023-08-01T05:47:37;90917.47;;;21.11;46.46
46778;BME280;32536;47.128;8.746;2023-08-01T05:50:06;90922.66;;;21.09;46.63
46778;BME280;32536;47.128;8.746;2023-08-01T05:52:33;90916.75;;;21.10;46.35
46778;BME280;32536;47.128;8.746;2023-08-01T05:55:00;90920.19;;;21.11;46.50
46778;BME280;32536;47.128;8.746;2023-08-01T05:57:27;90926.66;;;21.14;46.62
46778;BME280;32536;47.128;8.746;2023-08-01T05:59:55;90931.59;;;21.15;46.96
46778;BME280;32536;47.128;8.746;2023-08-01T06:02:22;90921.22;;;21.19;46.48
46778;BME280;32536;47.128;8.746;2023-08-01T06:04:49;90922.22;;;21.22;46.90
46778;BME280;32536;47.128;8.746;2023-08-01T06:07:16;90923.22;;;21.24;46.45
46778;BME280;32536;47.128;8.746;2023-08-01T06:09:50;90933.88;;;21.28;46.98
46778;BME280;32536;47.128;8.746;2023-08-01T06:12:19;90939.06;;;21.26;47.05
46778;BME280;32536;47.128;8.746;2023-08-01T06:14:46;90942.56;;;21.26;46.75
46778;BME280;32536;47.128;8.746;2023-08-01T06:17:14;90941.56;;;21.24;47.51
46778;BME280;32536;47.128;8.746;2023-08-01T06:19:41;90936.84;;;21.24;46.98
46778;BME280;32536;47.128;8.746;2023-08-01T06:22:08;90939.84;;;21.26;46.77
46778;BME280;32536;47.128;8.746;2023-08-01T06:24:35;90938.84;;;21.30;47.11
46778;BME280;32536;47.128;8.746;2023-08-01T06:27:02;90945.28;;;21.32;47.12
46778;BME280;32536;47.128;8.746;2023-08-01T06:29:29;90947.03;;;21.35;47.00
46778;BME280;32536;47.128;8.746;2023-08-01T06:31:55;90939.38;;;21.39;46.95
46778;BME280;32536;47.128;8.746;2023-08-01T06:34:22;90936.91;;;21.41;46.94
46778;BME280;32536;47.128;8.746;2023-08-01T06:36:50;90926.00;;;21.41;47.18
46778;BME280;32536;47.128;8.746;2023-08-01T06:39:17;90908.91;;;21.41;47.17
46778;BME280;32536;47.128;8.746;2023-08-01T06:45:22;90926.00;;;21.41;47.24
46778;BME280;32536;47.128;8.746;2023-08-01T06:47:49;90927.75;;;21.44;47.12
46778;BME280;32536;47.128;8.746;2023-08-01T06:50:16;90918.34;;;21.46;47.70
46778;BME280;32536;47.128;8.746;2023-08-01T06:52:43;90926.28;;;21.43;47.47
46778;BME280;32536;47.128;8.746;2023-08-01T06:55:09;90923.28;;;21.41;47.30
46778;BME280;32536;47.128;8.746;2023-08-01T06:57:36;90918.09;;;21.43;46.97
46778;BME280;32536;47.128;8.746;2023-08-01T07:00:03;90915.88;;;21.48;46.97
46778;BME280;32536;47.128;8.746;2023-08-01T07:02:30;90912.19;;;21.51;47.30
46778;BME280;32536;47.128;8.746;2023-08-01T07:04:57;90905.72;;;21.54;47.18
46778;BME280;32536;47.128;8.746;2023-08-01T07:07:23;90902.06;;;21.57;47.29
46778;BME280;32536;47.128;8.746;2023-08-01T07:09:50;90908.00;;;21.61;47.13
46778;BME280;32536;47.128;8.746;2023-08-01T07:12:17;90910.22;;;21.63;48.16
46778;BME280;32536;47.128;8.746;2023-08-01T07:14:43;90918.41;;;21.63;47.81
46778;BME280;32536;47.128;8.746;2023-08-01T07:17:11;90920.13;;;21.60;48.06
46778;BME280;32536;47.128;8.746;2023-08-01T07:19:37;90923.34;;;21.58;47.82
46778;BME280;32536;47.128;8.746;2023-08-01T07:22:04;90921.63;;;21.61;47.78
46778;BME280;32536;47.128;8.746;2023-08-01T07:24:31;90930.53;;;21.62;48.34
46778;BME280;32536;47.128;8.746;2023-08-01T07:26:57;90919.41;;;21.65;47.98
46778;BME280;32536;47.128;8.746;2023-08-01T07:29:24;90909.75;;;21.70;47.76
46778;BME280;32536;47.128;8.746;2023-08-01T07:31:51;90907.78;;;21.76;48.05
46778;BME280;32536;47.128;8.746;2023-08-01T07:34:17;90908.28;;;21.74;47.65
46778;BME280;32536;47.128;8.746;2023-08-01T07:36:47;90904.28;;;21.70;47.35
46778;BME280;32536;47.128;8.746;2023-08-01T07:39:15;90896.84;;;21.59;47.03
46778;BME280;32536;47.128;8.746;2023-08-01T07:41:42;90911.66;;;21.47;46.93
46778;BME280;32536;47.128;8.746;2023-08-01T07:44:09;90900.22;;;21.37;46.89
46778;BME280;32536;47.128;8.746;2023-08-01T07:46:36;90906.69;;;21.34;46.87
46778;BME280;32536;47.128;8.746;2023-08-01T07:49:02;90904.19;;;21.30;46.84
46778;BME280;32536;47.128;8.746;2023-08-01T07:51:29;90914.75;;;21.11;46.94
46778;BME280;32536;47.128;8.746;2023-08-01T07:53:56;90915.63;;;20.91;47.26
46778;BME280;32536;47.128;8.746;2023-08-01T07:56:23;90922.97;;;20.73;47.76
46778;BME280;32536;47.128;8.746;2023-08-01T07:58:50;90919.63;;;20.58;47.42
46778;BME280;32536;47.128;8.746;2023-08-01T08:01:16;90918.34;;;20.47;48.05
46778;BME280;32536;47.128;8.746;2023-08-01T08:03:43;90911.59;;;20.37;47.78
46778;BME280;32536;47.128;8.746;2023-08-01T08:06:10;90910.06;;;20.30;48.10
46778;BME280;32536;47.128;8.746;2023-08-01T08:08:37;90898.16;;;20.22;48.28
46778;BME280;32536;47.128;8.746;2023-08-01T08:11:03;90871.16;;;20.19;48.05
46778;BME280;32536;47.128;8.746;2023-08-01T08:13:30;90859.34;;;20.22;48.65
46778;BME280;32536;47.128;8.746;2023-08-01T08:15:57;90857.88;;;20.26;48.60
46778;BME280;32536;47.128;8.746;2023-08-01T08:18:24;90851.47;;;20.29;49.14
46778;BME280;32536;47.128;8.746;2023-08-01T08:20:53;90849.25;;;20.28;49.59
46778;BME280;32536;47.128;8.746;2023-08-01T08:23:19;90852.91;;;20.25;49.46
46778;BME280;32536;47.128;8.746;2023-08-01T08:25:46;90852.69;;;20.23;49.55
46778;BME280;32536;47.128;8.746;2023-08-01T08:28:14;90857.13;;;20.20;49.35
46778;BME280;32536;47.128;8.746;2023-08-01T08:30:40;90856.63;;;20.22;49.43
46778;BME280;32536;47.128;8.746;2023-08-01T08:33:07;90865.06;;;20.29;49.25
46778;BME280;32536;47.128;8.746;2023-08-01T08:35:36;90866.38;;;20.40;49.73
46778;BME280;32536;47.128;8.746;2023-08-01T08:38:03;90856.50;;;20.42;49.35
46778;BME280;32536;47.128;8.746;2023-08-01T08:40:34;90870.34;;;20.44;50.79
46778;BME280;32536;47.128;8.746;2023-08-01T08:43:02;90864.66;;;20.42;49.50
46778;BME280;32536;47.128;8.746;2023-08-01T08:45:33;90882.47;;;20.43;49.55
46778;BME280;32536;47.128;8.746;2023-08-01T08:48:03;90870.88;;;20.48;49.34
46778;BME280;32536;47.128;8.746;2023-08-01T08:50:35;90889.97;;;20.60;49.11
46778;BME280;32536;47.128;8.746;2023-08-01T08:53:03;90873.47;;;20.69;48.94
46778;BME280;32536;47.128;8.746;2023-08-01T08:55:39;90885.16;;;20.81;48.71
46778;BME280;32536;47.128;8.746;2023-08-01T08:58:07;90887.19;;;20.92;48.84
46778;BME280;32536;47.128;8.746;2023-08-01T09:00:37;90897.13;;;20.95;49.33
46778;BME280;32536;47.128;8.746;2023-08-01T09:03:04;90895.16;;;21.01;48.88
46778;BME280;32536;47.128;8.746;2023-08-01T09:05:38;90898.63;;;21.02;49.04
46778;BME280;32536;47.128;8.746;2023-08-01T09:08:17;90890.72;;;21.04;49.41
46778;BME280;32536;47.128;8.746;2023-08-01T09:10:46;90894.16;;;21.04;48.84
46778;BME280;32536;47.128;8.746;2023-08-01T09:13:13;90889.72;;;21.01;48.85
46778;BME280;32536;47.128;8.746;2023-08-01T09:15:41;90900.56;;;20.95;49.02
46778;BME280;32536;47.128;8.746;2023-08-01T09:18:09;90898.06;;;20.86;49.26
46778;BME280;32536;47.128;8.746;2023-08-01T09:20:47;90894.03;;;20.76;51.30
46778;BME280;32536;47.128;8.746;2023-08-01T09:23:15;90897.00;;;20.72;49.62
46778;BME280;32536;47.128;8.746;2023-08-01T09:25:43;90890.03;;;20.71;49.69
46778;BME280;32536;47.128;8.746;2023-08-01T09:30:49;90872.56;;;20.84;49.50
46778;BME280;32536;47.128;8.746;2023-08-01T09:33:17;90886.69;;;20.88;49.87
46778;BME280;32536;47.128;8.746;2023-08-01T09:35:44;90879.25;;;20.88;49.77
46778;BME280;32536;47.128;8.746;2023-08-01T09:38:15;90899.56;;;20.93;49.54
46778;BME280;32536;47.128;8.746;2023-08-01T09:40:43;90915.94;;;20.99;49.54
46778;BME280;32536;47.128;8.746;2023-08-01T09:43:12;90937.50;;;21.02;49.85
46778;BME280;32536;47.128;8.746;2023-08-01T09:45:54;90947.84;;;20.92;53.53
46778;BME280;32536;47.128;8.746;2023-08-01T09:48:26;90943.78;;;20.76;52.46
46778;BME280;32536;47.128;8.746;2023-08-01T09:54:17;90914.59;;;20.39;50.52
46778;BME280;32536;47.128;8.746;2023-08-01T09:56:45;90913.28;;;20.29;50.80
46778;BME280;32536;47.128;8.746;2023-08-01T09:59:23;90900.34;;;20.18;54.32
46778;BME280;32536;47.128;8.746;2023-08-01T10:01:52;90901.09;;;20.19;51.86
46778;BME280;32536;47.128;8.746;2023-08-01T10:04:21;90900.34;;;20.18;51.68
46778;BME280;32536;47.128;8.746;2023-08-01T10:06:53;90911.28;;;20.24;58.04
46778;BME280;32536;47.128;8.746;2023-08-01T10:09:24;90920.22;;;20.30;51.37
46778;BME280;32536;47.128;8.746;2023-08-01T10:11:51;90909.63;;;20.38;51.01
46778;BME280;32536;47.128;8.746;2023-08-01T10:14:21;90921.06;;;20.47;53.56
46778;BME280;32536;47.128;8.746;2023-08-01T10:16:49;90920.91;;;20.57;51.85
46778;BME280;32536;47.128;8.746;2023-08-01T10:19:17;90926.56;;;20.59;51.78
46778;BME280;32536;47.128;8.746;2023-08-01T10:21:44;90929.00;;;20.51;52.27
46778;BME280;32536;47.128;8.746;2023-08-01T10:24:12;90920.84;;;20.51;52.27
46778;BME280;32536;47.128;8.746;2023-08-01T10:26:39;90915.41;;;20.51;51.98
46778;BME280;32536;47.128;8.746;2023-08-01T10:29:06;90913.41;;;20.52;51.93
46778;BME280;32536;47.128;8.746;2023-08-01T10:31:33;90913.19;;;20.50;52.50
46778;BME280;32536;47.128;8.746;2023-08-01T10:34:05;90920.84;;;20.51;52.63
46778;BME280;32536;47.128;8.746;2023-08-01T10:36:37;90909.75;;;20.55;52.03
46778;BME280;32536;47.128;8.746;2023-08-01T10:39:04;90906.47;;;20.51;52.32
46778;BME280;32536;47.128;8.746;2023-08-01T10:41:32;90899.56;;;20.50;52.19
46778;BME280;32536;47.128;8.746;2023-08-01T10:44:13;90912.41;;;20.43;54.72
46778;BME280;32536;47.128;8.746;2023-08-01T10:47:00;90924.47;;;20.37;56.29
46778;BME280;32536;47.128;8.746;2023-08-01T10:49:42;90923.94;;;20.33;55.13
46778;BME280;32536;47.128;8.746;2023-08-01T10:54:46;90929.94;;;20.42;52.01
46778;BME280;32536;47.128;8.746;2023-08-01T10:57:16;90922.28;;;20.46;55.69
46778;BME280;32536;47.128;8.746;2023-08-01T10:59:44;90938.63;;;20.46;52.30
46778;BME280;32536;47.128;8.746;2023-08-01T11:02:11;90938.44;;;20.56;52.20
46778;BME280;32536;47.128;8.746;2023-08-01T11:04:58;90921.91;;;20.59;54.36
46778;BME280;32536;47.128;8.746;2023-08-01T11:07:26;90940.72;;;20.63;53.10
46778;BME280;32536;47.128;8.746;2023-08-01T11:10:10;90929.28;;;20.53;53.21
46778;BME280;32536;47.128;8.746;2023-08-01T11:12:40;90935.72;;;20.56;52.69
46778;BME280;32536;47.128;8.746;2023-08-01T11:15:10;90921.13;;;20.59;52.33
46778;BME280;32536;47.128;8.746;2023-08-01T11:17:39;90923.13;;;20.64;52.22
46778;BME280;32536;47.128;8.746;2023-08-01T11:20:12;90917.22;;;20.66;52.20
46778;BME280;32536;47.128;8.746;2023-08-01T11:22:57;90919.72;;;20.69;52.98
46778;BME280;32536;47.128;8.746;2023-08-01T11:25:31;90920.06;;;20.83;52.91
46778;BME280;32536;47.128;8.746;2023-08-01T11:28:06;90923.13;;;20.96;52.54
46778;BME280;32536;47.128;8.746;2023-08-01T11:30:41;90928.88;;;21.09;51.91
46778;BME280;32536;47.128;8.746;2023-08-01T11:33:20;90922.19;;;21.16;51.18
46778;BME280;32536;47.128;8.746;2023-08-01T11:35:52;90920.47;;;21.19;51.14
46778;BME280;32536;47.128;8.746;2023-08-01T11:38:22;90917.28;;;21.26;51.26
46778;BME280;32536;47.128;8.746;2023-08-01T11:40:51;90927.88;;;21.13;51.05
46778;BME280;32536;47.128;8.746;2023-08-01T11:43:18;90930.81;;;21.09;51.05
46778;BME280;32536;47.128;8.746;2023-08-01T11:45:56;90927.16;;;21.12;50.55
46778;BME280;32536;47.128;8.746;2023-08-01T11:48:25;90927.16;;;21.18;51.00
46778;BME280;32536;47.128;8.746;2023-08-01T11:50:58;90928.44;;;21.28;50.70
46778;BME280;32536;47.128;8.746;2023-08-01T11:53:25;90919.31;;;21.37;50.75
46778;BME280;32536;47.128;8.746;2023-08-01T11:55:52;90915.59;;;21.46;50.51
46778;BME280;32536;47.128;8.746;2023-08-01T11:58:30;90922.06;;;21.54;51.14
46778;BME280;32536;47.128;8.746;2023-08-01T12:01:09;90928.06;;;21.64;50.82
46778;BME280;32536;47.128;8.746;2023-08-01T12:03:51;90923.38;;;21.70;51.13
46778;BME280;32536;47.128;8.746;2023-08-01T12:06:22;90924.63;;;21.74;50.25
46778;BME280;32536;47.128;8.746;2023-08-01T12:08:51;90930.59;;;21.73;50.37
46778;BME280;32536;47.128;8.746;2023-08-01T12:11:24;90926.84;;;21.76;50.64
46778;BME280;32536;47.128;8.746;2023-08-01T12:14:05;90923.66;;;21.83;50.22
46778;BME280;32536;47.128;8.746;2023-08-01T12:16:36;90922.19;;;21.94;50.01
46778;BME280;32536;47.128;8.746;2023-08-01T12:19:04;90926.41;;;22.00;49.98
46778;BME280;32536;47.128;8.746;2023-08-01T12:21:32;90932.34;;;21.93;49.95
46778;BME280;32536;47.128;8.746;2023-08-01T12:24:00;90930.59;;;21.84;50.01
46778;BME280;32536;47.128;8.746;2023-08-01T12:26:28;90939.50;;;21.79;50.42
46778;BME280;32536;47.128;8.746;2023-08-01T12:28:55;90942.72;;;21.72;50.62
46778;BME280;32536;47.128;8.746;2023-08-01T12:31:22;90938.00;;;21.67;50.20
46778;BME280;32536;47.128;8.746;2023-08-01T12:33:50;90949.38;;;21.59;50.98
46778;BME280;32536;47.128;8.746;2023-08-01T12:36:19;90956.97;;;21.44;50.68
46778;BME280;32536;47.128;8.746;2023-08-01T12:38:46;90963.81;;;21.22;51.92
46778;BME280;32536;47.128;8.746;2023-08-01T12:43:39;90963.94;;;20.58;52.75
46778;BME280;32536;47.128;8.746;2023-08-01T12:46:06;90957.88;;;20.43;52.10
46778;BME280;32536;47.128;8.746;2023-08-01T12:48:32;90959.47;;;20.23;52.86
46778;BME280;32536;47.128;8.746;2023-08-01T12:50:59;90952.38;;;20.05;52.99
46778;BME280;32536;47.128;8.746;2023-08-01T12:53:26;90934.44;;;19.87;54.08
46778;BME280;32536;47.128;8.746;2023-08-01T12:55:53;90935.91;;;19.62;55.03
46778;BME280;32536;47.128;8.746;2023-08-01T13:04:49;90922.25;;;19.30;55.20
46778;BME280;32536;47.128;8.746;2023-08-01T13:07:16;90923.72;;;19.31;54.76
46778;BME280;32536;47.128;8.746;2023-08-01T13:09:43;90916.38;;;19.37;55.02
46778;BME280;32536;47.128;8.746;2023-08-01T13:12:10;90933.44;;;19.38;55.53
46778;BME280;32536;47.128;8.746;2023-08-01T13:14:37;90927.31;;;19.43;55.07
46778;BME280;32536;47.128;8.746;2023-08-01T13:17:04;90932.81;;;19.48;55.08
46778;BME280;32536;47.128;8.746;2023-08-01T13:19:31;90943.00;;;19.54;54.96
46778;BME280;32536;47.128;8.746;2023-08-01T13:21:58;90955.38;;;19.60;54.66
46778;BME280;32536;47.128;8.746;2023-08-01T13:24:24;90952.75;;;19.66;54.52
46778;BME280;32536;47.128;8.746;2023-08-01T13:26:51;90957.03;;;19.73;54.45
46778;BME280;32536;47.128;8.746;2023-08-01T13:29:18;90954.56;;;19.75;54.76